sensor_id;sensor_type;location;lat;lon;timestamp;temperature;humidity
17170;DHT22;8700;48.222;16.342;2023-04-07T00:02:51;8.10;69.70
17170;DHT22;8700;48.222;16.342;2023-04-07T00:06:12;8.10;69.90
17170;DHT22;8700;48.222;16.342;2023-04-07T00:09:35;8.10;70.00
17170;DHT22;8700;48.222;16.342;2023-04-07T00:12:57;8.10;70.00
17170;DHT22;8700;48.222;16.342;2023-04-07T00:16:18;8.00;70.30
17170;DHT22;8700;48.222;16.342;2023-04-07T00:19:40;8.00;70.40
17170;DHT22;8700;48.222;16.342;2023-04-07T00:23:02;8.20;70.10
17170;DHT22;8700;48.222;16.342;2023-04-07T00:26:25;8.10;70.20
17170;DHT22;8700;48.222;16.342;2023-04-07T00:29:50;8.00;70.40
17170;DHT22;8700;48.222;16.342;2023-04-07T00:33:14;8.00;70.60
17170;DHT22;8700;48.222;16.342;2023-04-07T00:36:35;8.10;71.30
17170;DHT22;8700;48.222;16.342;2023-04-07T00:39:57;8.10;70.40
17170;DHT22;8700;48.222;16.342;2023-04-07T00:43:19;8.00;70.90
17170;DHT22;8700;48.222;16.342;2023-04-07T00:46:41;8.00;71.20
17170;DHT22;8700;48.222;16.342;2023-04-07T00:50:03;7.90;71.60
17170;DHT22;8700;48.222;16.342;2023-04-07T00:53:25;7.80;72.40
17170;DHT22;8700;48.222;16.342;2023-04-07T00:56:46;7.90;71.60
17170;DHT22;8700;48.222;16.342;2023-04-07T01:00:10;7.90;71.60
17170;DHT22;8700;48.222;16.342;2023-04-07T01:03:41;7.80;72.20
17170;DHT22;8700;48.222;16.342;2023-04-07T01:07:10;7.90;72.10
17170;DHT22;8700;48.222;16.342;2023-04-07T01:10:42;7.90;71.80
17170;DHT22;8700;48.222;16.342;2023-04-07T01:14:09;7.80;72.00
17170;DHT22;8700;48.222;16.342;2023-04-07T01:17:34;7.80;72.10
17170;DHT22;8700;48.222;16.342;2023-04-07T01:21:03;7.80;72.30
17170;DHT22;8700;48.222;16.342;2023-04-07T01:24:41;7.90;72.20
17170;DHT22;8700;48.222;16.342;2023-04-07T01:28:30;7.90;72.10
17170;DHT22;8700;48.222;16.342;2023-04-07T01:31:55;7.80;72.20
17170;DHT22;8700;48.222;16.342;2023-04-07T01:35:19;7.80;72.40
17170;DHT22;8700;48.222;16.342;2023-04-07T01:38:43;7.70;72.40
17170;DHT22;8700;48.222;16.342;2023-04-07T01:42:06;7.70;72.50
17170;DHT22;8700;48.222;16.342;2023-04-07T01:45:28;7.70;72.60
17170;DHT22;8700;48.222;16.342;2023-04-07T01:48:52;7.60;73.00
17170;DHT22;8700;48.222;16.342;2023-04-07T01:52:14;7.70;73.10
17170;DHT22;8700;48.222;16.342;2023-04-07T01:55:37;7.60;73.40
17170;DHT22;8700;48.222;16.342;2023-04-07T01:58:58;7.60;73.50
17170;DHT22;8700;48.222;16.342;2023-04-07T02:02:20;7.70;73.50
17170;DHT22;8700;48.222;16.342;2023-04-07T02:05:43;7.60;73.60
17170;DHT22;8700;48.222;16.342;2023-04-07T02:09:06;7.60;73.70
17170;DHT22;8700;48.222;16.342;2023-04-07T02:12:31;7.60;73.80
17170;DHT22;8700;48.222;16.342;2023-04-07T02:15:55;7.50;74.00
17170;DHT22;8700;48.222;16.342;2023-04-07T02:19:20;7.50;74.20
17170;DHT22;8700;48.222;16.342;2023-04-07T02:22:43;7.50;74.20
17170;DHT22;8700;48.222;16.342;2023-04-07T02:26:04;7.40;74.40
17170;DHT22;8700;48.222;16.342;2023-04-07T02:29:29;7.50;74.70
17170;DHT22;8700;48.222;16.342;2023-04-07T02:32:50;7.40;74.80
17170;DHT22;8700;48.222;16.342;2023-04-07T02:36:11;7.50;74.80
17170;DHT22;8700;48.222;16.342;2023-04-07T02:39:34;7.40;75.10
17170;DHT22;8700;48.222;16.342;2023-04-07T02:42:55;7.50;75.10
17170;DHT22;8700;48.222;16.342;2023-04-07T02:46:17;7.50;75.80
17170;DHT22;8700;48.222;16.342;2023-04-07T02:49:38;7.50;75.10
17170;DHT22;8700;48.222;16.342;2023-04-07T02:52:59;7.50;75.40
17170;DHT22;8700;48.222;16.342;2023-04-07T02:56:22;7.50;75.40
17170;DHT22;8700;48.222;16.342;2023-04-07T02:59:44;7.50;76.00
17170;DHT22;8700;48.222;16.342;2023-04-07T03:03:05;7.50;75.30
17170;DHT22;8700;48.222;16.342;2023-04-07T03:06:26;7.50;75.30
17170;DHT22;8700;48.222;16.342;2023-04-07T03:09:47;7.40;75.60
17170;DHT22;8700;48.222;16.342;2023-04-07T03:13:10;7.30;75.80
17170;DHT22;8700;48.222;16.342;2023-04-07T03:16:35;7.30;75.80
17170;DHT22;8700;48.222;16.342;2023-04-07T03:19:59;7.30;75.80
17170;DHT22;8700;48.222;16.342;2023-04-07T03:23:20;7.20;76.10
17170;DHT22;8700;48.222;16.342;2023-04-07T03:26:42;7.20;76.10
17170;DHT22;8700;48.222;16.342;2023-04-07T03:30:07;7.00;76.20
17170;DHT22;8700;48.222;16.342;2023-04-07T03:33:31;7.20;76.30
17170;DHT22;8700;48.222;16.342;2023-04-07T03:36:52;7.20;76.80
17170;DHT22;8700;48.222;16.342;2023-04-07T03:40:14;7.10;76.60
17170;DHT22;8700;48.222;16.342;2023-04-07T03:43:35;7.10;77.00
17170;DHT22;8700;48.222;16.342;2023-04-07T03:46:59;7.00;77.20
17170;DHT22;8700;48.222;16.342;2023-04-07T03:50:20;7.00;77.20
17170;DHT22;8700;48.222;16.342;2023-04-07T03:53:41;7.10;77.40
17170;DHT22;8700;48.222;16.342;2023-04-07T03:57:03;6.90;77.70
17170;DHT22;8700;48.222;16.342;2023-04-07T04:00:24;7.00;78.10
17170;DHT22;8700;48.222;16.342;2023-04-07T04:03:48;6.90;78.80
17170;DHT22;8700;48.222;16.342;2023-04-07T04:07:10;7.10;78.30
17170;DHT22;8700;48.222;16.342;2023-04-07T04:10:31;7.10;78.20
17170;DHT22;8700;48.222;16.342;2023-04-07T04:13:52;7.20;78.20
17170;DHT22;8700;48.222;16.342;2023-04-07T04:17:14;7.30;77.80
17170;DHT22;8700;48.222;16.342;2023-04-07T04:20:36;7.30;77.40
17170;DHT22;8700;48.222;16.342;2023-04-07T04:23:58;7.20;77.90
17170;DHT22;8700;48.222;16.342;2023-04-07T04:27:19;7.30;78.00
17170;DHT22;8700;48.222;16.342;2023-04-07T04:30:40;7.30;78.20
17170;DHT22;8700;48.222;16.342;2023-04-07T04:34:02;7.40;77.70
17170;DHT22;8700;48.222;16.342;2023-04-07T04:37:25;7.40;78.00
17170;DHT22;8700;48.222;16.342;2023-04-07T04:40:46;7.50;77.80
17170;DHT22;8700;48.222;16.342;2023-04-07T04:44:08;7.50;77.30
17170;DHT22;8700;48.222;16.342;2023-04-07T04:47:29;7.40;77.30
17170;DHT22;8700;48.222;16.342;2023-04-07T04:50:50;7.40;77.30
17170;DHT22;8700;48.222;16.342;2023-04-07T04:54:13;7.40;77.50
17170;DHT22;8700;48.222;16.342;2023-04-07T04:57:34;7.50;77.20
17170;DHT22;8700;48.222;16.342;2023-04-07T05:00:56;7.40;77.70
17170;DHT22;8700;48.222;16.342;2023-04-07T05:04:18;7.50;77.60
17170;DHT22;8700;48.222;16.342;2023-04-07T05:07:39;7.50;77.70
17170;DHT22;8700;48.222;16.342;2023-04-07T05:11:03;7.60;77.50
17170;DHT22;8700;48.222;16.342;2023-04-07T05:14:24;7.80;77.50
17170;DHT22;8700;48.222;16.342;2023-04-07T05:17:45;7.90;77.00
17170;DHT22;8700;48.222;16.342;2023-04-07T05:21:10;7.90;77.20
17170;DHT22;8700;48.222;16.342;2023-04-07T05:24:34;7.80;77.80
17170;DHT22;8700;48.222;16.342;2023-04-07T05:27:57;7.80;77.50
17170;DHT22;8700;48.222;16.342;2023-04-07T05:31:19;7.80;78.00
17170;DHT22;8700;48.222;16.342;2023-04-07T05:34:40;7.90;77.50
17170;DHT22;8700;48.222;16.342;2023-04-07T05:38:01;7.90;77.30
17170;DHT22;8700;48.222;16.342;2023-04-07T05:41:23;8.00;77.30
17170;DHT22;8700;48.222;16.342;2023-04-07T05:44:47;8.10;76.90
17170;DHT22;8700;48.222;16.342;2023-04-07T05:48:08;7.90;77.90
17170;DHT22;8700;48.222;16.342;2023-04-07T05:51:33;7.90;78.10
17170;DHT22;8700;48.222;16.342;2023-04-07T05:54:54;8.00;77.50
17170;DHT22;8700;48.222;16.342;2023-04-07T05:58:16;8.20;77.60
17170;DHT22;8700;48.222;16.342;2023-04-07T06:01:41;8.40;77.20
17170;DHT22;8700;48.222;16.342;2023-04-07T06:05:03;8.50;76.60
17170;DHT22;8700;48.222;16.342;2023-04-07T06:08:24;8.60;76.70
17170;DHT22;8700;48.222;16.342;2023-04-07T06:11:46;8.70;75.60
17170;DHT22;8700;48.222;16.342;2023-04-07T06:15:07;8.60;75.90
17170;DHT22;8700;48.222;16.342;2023-04-07T06:18:30;8.60;76.00
17170;DHT22;8700;48.222;16.342;2023-04-07T06:21:51;8.50;76.00
17170;DHT22;8700;48.222;16.342;2023-04-07T06:25:13;8.50;75.90
17170;DHT22;8700;48.222;16.342;2023-04-07T06:28:34;8.40;76.40
17170;DHT22;8700;48.222;16.342;2023-04-07T06:31:56;8.30;76.20
17170;DHT22;8700;48.222;16.342;2023-04-07T06:35:20;8.20;76.20
17170;DHT22;8700;48.222;16.342;2023-04-07T06:38:42;8.30;76.30
17170;DHT22;8700;48.222;16.342;2023-04-07T06:42:03;8.30;76.50
17170;DHT22;8700;48.222;16.342;2023-04-07T06:45:25;8.30;77.00
17170;DHT22;8700;48.222;16.342;2023-04-07T06:48:46;8.50;76.70
17170;DHT22;8700;48.222;16.342;2023-04-07T06:52:09;8.50;76.70
17170;DHT22;8700;48.222;16.342;2023-04-07T06:55:30;8.40;76.60
17170;DHT22;8700;48.222;16.342;2023-04-07T06:58:52;8.50;76.80
17170;DHT22;8700;48.222;16.342;2023-04-07T07:02:15;8.50;76.40
17170;DHT22;8700;48.222;16.342;2023-04-07T07:05:36;8.70;76.90
17170;DHT22;8700;48.222;16.342;2023-04-07T07:09:01;8.90;76.30
17170;DHT22;8700;48.222;16.342;2023-04-07T07:12:23;9.00;76.50
17170;DHT22;8700;48.222;16.342;2023-04-07T07:15:44;9.20;76.20
17170;DHT22;8700;48.222;16.342;2023-04-07T07:19:05;9.40;75.70
17170;DHT22;8700;48.222;16.342;2023-04-07T07:22:27;9.50;75.60
17170;DHT22;8700;48.222;16.342;2023-04-07T07:25:49;9.60;75.60
17170;DHT22;8700;48.222;16.342;2023-04-07T07:29:11;9.80;74.80
17170;DHT22;8700;48.222;16.342;2023-04-07T07:32:32;9.80;74.60
17170;DHT22;8700;48.222;16.342;2023-04-07T07:35:53;10.00;74.70
17170;DHT22;8700;48.222;16.342;2023-04-07T07:39:15;10.10;74.10
17170;DHT22;8700;48.222;16.342;2023-04-07T07:42:37;10.10;73.90
17170;DHT22;8700;48.222;16.342;2023-04-07T07:45:59;10.00;73.80
17170;DHT22;8700;48.222;16.342;2023-04-07T07:49:20;10.10;74.00
17170;DHT22;8700;48.222;16.342;2023-04-07T07:52:42;10.10;73.80
17170;DHT22;8700;48.222;16.342;2023-04-07T07:56:03;10.10;74.20
17170;DHT22;8700;48.222;16.342;2023-04-07T07:59:26;10.10;74.30
17170;DHT22;8700;48.222;16.342;2023-04-07T08:02:48;10.20;74.10
17170;DHT22;8700;48.222;16.342;2023-04-07T08:06:09;10.20;74.40
17170;DHT22;8700;48.222;16.342;2023-04-07T08:09:30;10.40;74.60
17170;DHT22;8700;48.222;16.342;2023-04-07T08:12:52;10.40;74.40
17170;DHT22;8700;48.222;16.342;2023-04-07T08:16:14;10.40;74.40
17170;DHT22;8700;48.222;16.342;2023-04-07T08:19:36;10.30;75.00
17170;DHT22;8700;48.222;16.342;2023-04-07T08:22:57;10.30;74.90
17170;DHT22;8700;48.222;16.342;2023-04-07T08:26:19;10.30;75.10
17170;DHT22;8700;48.222;16.342;2023-04-07T08:29:40;10.20;75.60
17170;DHT22;8700;48.222;16.342;2023-04-07T08:33:04;10.40;74.60
17170;DHT22;8700;48.222;16.342;2023-04-07T08:36:25;10.30;74.80
17170;DHT22;8700;48.222;16.342;2023-04-07T08:39:47;10.20;74.70
17170;DHT22;8700;48.222;16.342;2023-04-07T08:43:09;10.20;75.20
17170;DHT22;8700;48.222;16.342;2023-04-07T08:46:31;10.40;74.90
17170;DHT22;8700;48.222;16.342;2023-04-07T08:49:56;10.40;74.90
17170;DHT22;8700;48.222;16.342;2023-04-07T08:53:23;10.60;74.90
17170;DHT22;8700;48.222;16.342;2023-04-07T08:56:49;10.60;74.40
17170;DHT22;8700;48.222;16.342;2023-04-07T09:00:12;10.50;72.70
17170;DHT22;8700;48.222;16.342;2023-04-07T09:03:34;10.60;71.90
17170;DHT22;8700;48.222;16.342;2023-04-07T09:06:57;10.60;72.40
17170;DHT22;8700;48.222;16.342;2023-04-07T09:10:20;10.80;71.90
17170;DHT22;8700;48.222;16.342;2023-04-07T09:13:42;10.40;73.00
17170;DHT22;8700;48.222;16.342;2023-04-07T09:17:03;10.60;73.10
17170;DHT22;8700;48.222;16.342;2023-04-07T09:20:25;10.80;72.70
17170;DHT22;8700;48.222;16.342;2023-04-07T09:23:48;10.80;72.60
17170;DHT22;8700;48.222;16.342;2023-04-07T09:27:13;10.90;72.60
17170;DHT22;8700;48.222;16.342;2023-04-07T09:30:35;10.90;72.90
17170;DHT22;8700;48.222;16.342;2023-04-07T09:33:57;11.00;72.60
17170;DHT22;8700;48.222;16.342;2023-04-07T09:37:21;10.90;73.10
17170;DHT22;8700;48.222;16.342;2023-04-07T09:40:44;11.00;73.40
17170;DHT22;8700;48.222;16.342;2023-04-07T09:44:07;10.90;73.50
17170;DHT22;8700;48.222;16.342;2023-04-07T09:47:30;10.90;73.50
17170;DHT22;8700;48.222;16.342;2023-04-07T09:51:04;10.80;73.70
17170;DHT22;8700;48.222;16.342;2023-04-07T09:54:34;10.80;73.90
17170;DHT22;8700;48.222;16.342;2023-04-07T09:57:57;10.90;74.10
17170;DHT22;8700;48.222;16.342;2023-04-07T10:01:20;11.10;73.30
17170;DHT22;8700;48.222;16.342;2023-04-07T10:04:41;10.90;72.70
17170;DHT22;8700;48.222;16.342;2023-04-07T10:08:04;10.80;72.70
17170;DHT22;8700;48.222;16.342;2023-04-07T10:11:26;10.90;73.10
17170;DHT22;8700;48.222;16.342;2023-04-07T10:14:49;11.30;72.10
17170;DHT22;8700;48.222;16.342;2023-04-07T10:18:14;11.30;71.60
17170;DHT22;8700;48.222;16.342;2023-04-07T10:21:39;11.40;71.40
17170;DHT22;8700;48.222;16.342;2023-04-07T10:25:05;11.60;70.90
17170;DHT22;8700;48.222;16.342;2023-04-07T10:28:27;11.70;70.00
17170;DHT22;8700;48.222;16.342;2023-04-07T10:31:52;12.00;69.70
17170;DHT22;8700;48.222;16.342;2023-04-07T10:35:14;12.00;68.90
17170;DHT22;8700;48.222;16.342;2023-04-07T10:38:36;11.90;67.90
17170;DHT22;8700;48.222;16.342;2023-04-07T10:41:57;11.70;68.90
17170;DHT22;8700;48.222;16.342;2023-04-07T10:45:51;11.50;68.70
17170;DHT22;8700;48.222;16.342;2023-04-07T10:49:16;11.40;68.50
17170;DHT22;8700;48.222;16.342;2023-04-07T10:52:38;11.40;68.40
17170;DHT22;8700;48.222;16.342;2023-04-07T10:55:59;11.50;68.70
17170;DHT22;8700;48.222;16.342;2023-04-07T10:59:21;11.30;68.40
17170;DHT22;8700;48.222;16.342;2023-04-07T11:02:46;11.30;68.90
17170;DHT22;8700;48.222;16.342;2023-04-07T11:06:10;11.40;68.70
17170;DHT22;8700;48.222;16.342;2023-04-07T11:09:31;11.50;68.20
17170;DHT22;8700;48.222;16.342;2023-04-07T11:13:00;11.70;68.40
17170;DHT22;8700;48.222;16.342;2023-04-07T11:16:40;11.80;68.20
17170;DHT22;8700;48.222;16.342;2023-04-07T11:20:01;11.60;69.60
17170;DHT22;8700;48.222;16.342;2023-04-07T11:23:24;11.50;70.40
17170;DHT22;8700;48.222;16.342;2023-04-07T11:26:46;11.60;70.30
17170;DHT22;8700;48.222;16.342;2023-04-07T11:30:08;11.80;69.70
17170;DHT22;8700;48.222;16.342;2023-04-07T11:33:31;11.90;70.00
17170;DHT22;8700;48.222;16.342;2023-04-07T11:36:54;12.00;69.40
17170;DHT22;8700;48.222;16.342;2023-04-07T11:40:32;12.10;69.10
17170;DHT22;8700;48.222;16.342;2023-04-07T11:44:04;12.20;69.50
17170;DHT22;8700;48.222;16.342;2023-04-07T11:47:33;12.50;69.10
17170;DHT22;8700;48.222;16.342;2023-04-07T11:50:55;12.90;68.60
17170;DHT22;8700;48.222;16.342;2023-04-07T11:54:16;13.20;68.10
17170;DHT22;8700;48.222;16.342;2023-04-07T11:57:39;13.50;67.70
17170;DHT22;8700;48.222;16.342;2023-04-07T12:01:02;13.90;66.60
17170;DHT22;8700;48.222;16.342;2023-04-07T12:04:27;14.00;66.20
17170;DHT22;8700;48.222;16.342;2023-04-07T12:07:53;14.00;66.20
17170;DHT22;8700;48.222;16.342;2023-04-07T12:11:16;14.00;66.00
17170;DHT22;8700;48.222;16.342;2023-04-07T12:14:40;14.10;65.60
17170;DHT22;8700;48.222;16.342;2023-04-07T12:18:01;14.10;65.60
17170;DHT22;8700;48.222;16.342;2023-04-07T12:21:23;14.20;65.00
17170;DHT22;8700;48.222;16.342;2023-04-07T12:24:45;14.10;65.10
17170;DHT22;8700;48.222;16.342;2023-04-07T12:28:07;14.10;64.40
17170;DHT22;8700;48.222;16.342;2023-04-07T12:31:29;13.60;64.70
17170;DHT22;8700;48.222;16.342;2023-04-07T12:34:51;13.50;65.30
17170;DHT22;8700;48.222;16.342;2023-04-07T12:38:12;13.60;65.30
17170;DHT22;8700;48.222;16.342;2023-04-07T12:41:34;13.90;64.60
17170;DHT22;8700;48.222;16.342;2023-04-07T12:44:57;13.80;64.40
17170;DHT22;8700;48.222;16.342;2023-04-07T12:48:20;13.80;64.90
17170;DHT22;8700;48.222;16.342;2023-04-07T12:51:42;13.80;64.50
17170;DHT22;8700;48.222;16.342;2023-04-07T12:55:04;13.80;64.60
17170;DHT22;8700;48.222;16.342;2023-04-07T12:58:26;13.80;65.10
17170;DHT22;8700;48.222;16.342;2023-04-07T13:01:47;13.90;64.90
17170;DHT22;8700;48.222;16.342;2023-04-07T13:05:10;13.70;65.00
17170;DHT22;8700;48.222;16.342;2023-04-07T13:08:31;13.50;65.20
17170;DHT22;8700;48.222;16.342;2023-04-07T13:11:53;13.60;65.20
17170;DHT22;8700;48.222;16.342;2023-04-07T13:15:15;13.50;65.20
17170;DHT22;8700;48.222;16.342;2023-04-07T13:18:37;13.40;66.20
17170;DHT22;8700;48.222;16.342;2023-04-07T13:22:00;13.30;67.10
17170;DHT22;8700;48.222;16.342;2023-04-07T13:25:22;13.30;67.30
17170;DHT22;8700;48.222;16.342;2023-04-07T13:28:43;13.10;68.30
17170;DHT22;8700;48.222;16.342;2023-04-07T13:32:07;13.10;69.10
17170;DHT22;8700;48.222;16.342;2023-04-07T13:35:28;13.20;69.10
17170;DHT22;8700;48.222;16.342;2023-04-07T13:38:56;13.30;68.70
17170;DHT22;8700;48.222;16.342;2023-04-07T13:42:17;13.40;69.00
17170;DHT22;8700;48.222;16.342;2023-04-07T13:45:41;13.50;69.30
17170;DHT22;8700;48.222;16.342;2023-04-07T13:49:02;13.40;70.00
17170;DHT22;8700;48.222;16.342;2023-04-07T13:52:24;13.30;70.50
17170;DHT22;8700;48.222;16.342;2023-04-07T13:55:46;13.40;71.70
17170;DHT22;8700;48.222;16.342;2023-04-07T13:59:08;13.30;73.60
17170;DHT22;8700;48.222;16.342;2023-04-07T14:02:29;13.20;74.30
17170;DHT22;8700;48.222;16.342;2023-04-07T14:05:51;13.20;75.00
17170;DHT22;8700;48.222;16.342;2023-04-07T14:09:13;13.20;75.50
17170;DHT22;8700;48.222;16.342;2023-04-07T14:12:35;13.30;75.80
17170;DHT22;8700;48.222;16.342;2023-04-07T14:15:57;13.30;75.30
17170;DHT22;8700;48.222;16.342;2023-04-07T14:19:19;13.30;75.50
17170;DHT22;8700;48.222;16.342;2023-04-07T14:22:41;13.10;75.90
17170;DHT22;8700;48.222;16.342;2023-04-07T14:26:03;12.90;77.10
17170;DHT22;8700;48.222;16.342;2023-04-07T14:29:25;13.00;77.40
17170;DHT22;8700;48.222;16.342;2023-04-07T14:32:46;12.80;77.30
17170;DHT22;8700;48.222;16.342;2023-04-07T14:36:08;12.80;78.20
17170;DHT22;8700;48.222;16.342;2023-04-07T14:39:29;12.90;77.90
17170;DHT22;8700;48.222;16.342;2023-04-07T14:42:53;12.90;78.20
17170;DHT22;8700;48.222;16.342;2023-04-07T14:46:18;12.80;78.90
17170;DHT22;8700;48.222;16.342;2023-04-07T14:49:39;12.80;78.90
17170;DHT22;8700;48.222;16.342;2023-04-07T14:53:03;12.50;78.40
17170;DHT22;8700;48.222;16.342;2023-04-07T14:56:25;12.30;79.20
17170;DHT22;8700;48.222;16.342;2023-04-07T14:59:46;12.20;80.00
17170;DHT22;8700;48.222;16.342;2023-04-07T15:03:09;12.30;80.60
17170;DHT22;8700;48.222;16.342;2023-04-07T15:06:30;12.50;80.30
17170;DHT22;8700;48.222;16.342;2023-04-07T15:09:52;12.80;78.90
17170;DHT22;8700;48.222;16.342;2023-04-07T15:13:13;12.60;78.80
17170;DHT22;8700;48.222;16.342;2023-04-07T15:16:35;12.40;79.40
17170;DHT22;8700;48.222;16.342;2023-04-07T15:19:57;12.30;79.80
17170;DHT22;8700;48.222;16.342;2023-04-07T15:23:19;12.30;79.80
17170;DHT22;8700;48.222;16.342;2023-04-07T15:26:40;12.40;80.20
17170;DHT22;8700;48.222;16.342;2023-04-07T15:30:01;12.40;80.60
17170;DHT22;8700;48.222;16.342;2023-04-07T15:33:23;12.40;80.60
17170;DHT22;8700;48.222;16.342;2023-04-07T15:36:45;12.30;80.60
17170;DHT22;8700;48.222;16.342;2023-04-07T15:40:07;12.30;80.70
17170;DHT22;8700;48.222;16.342;2023-04-07T15:43:29;12.20;81.20
17170;DHT22;8700;48.222;16.342;2023-04-07T15:46:50;12.20;81.90
17170;DHT22;8700;48.222;16.342;2023-04-07T15:50:12;12.00;84.30
17170;DHT22;8700;48.222;16.342;2023-04-07T15:53:35;11.80;85.50
17170;DHT22;8700;48.222;16.342;2023-04-07T15:56:57;11.60;87.20
17170;DHT22;8700;48.222;16.342;2023-04-07T16:00:18;11.50;88.60
17170;DHT22;8700;48.222;16.342;2023-04-07T16:03:41;11.40;90.00
17170;DHT22;8700;48.222;16.342;2023-04-07T16:07:02;11.30;90.40
17170;DHT22;8700;48.222;16.342;2023-04-07T16:10:24;11.20;90.80
17170;DHT22;8700;48.222;16.342;2023-04-07T16:13:46;11.30;91.40
17170;DHT22;8700;48.222;16.342;2023-04-07T16:17:07;11.30;91.80
17170;DHT22;8700;48.222;16.342;2023-04-07T16:20:28;11.20;92.30
17170;DHT22;8700;48.222;16.342;2023-04-07T16:23:49;11.20;92.50
17170;DHT22;8700;48.222;16.342;2023-04-07T16:27:12;11.00;92.90
17170;DHT22;8700;48.222;16.342;2023-04-07T16:30:33;11.00;93.40
17170;DHT22;8700;48.222;16.342;2023-04-07T16:33:55;10.80;94.10
17170;DHT22;8700;48.222;16.342;2023-04-07T16:37:16;10.70;95.00
17170;DHT22;8700;48.222;16.342;2023-04-07T16:40:37;10.70;95.90
17170;DHT22;8700;48.222;16.342;2023-04-07T16:44:00;10.70;96.50
17170;DHT22;8700;48.222;16.342;2023-04-07T16:47:21;10.60;97.20
17170;DHT22;8700;48.222;16.342;2023-04-07T16:50:43;10.50;98.00
17170;DHT22;8700;48.222;16.342;2023-04-07T16:54:04;10.40;99.10
17170;DHT22;8700;48.222;16.342;2023-04-07T16:57:26;10.40;99.90
17170;DHT22;8700;48.222;16.342;2023-04-07T17:00:49;10.40;99.90
17170;DHT22;8700;48.222;16.342;2023-04-07T17:04:10;10.50;99.90
17170;DHT22;8700;48.222;16.342;2023-04-07T17:07:31;10.50;99.90
17170;DHT22;8700;48.222;16.342;2023-04-07T17:10:53;10.50;99.90
17170;DHT22;8700;48.222;16.342;2023-04-07T17:14:14;10.60;99.90
17170;DHT22;8700;48.222;16.342;2023-04-07T17:17:36;10.50;99.90
17170;DHT22;8700;48.222;16.342;2023-04-07T17:20:58;10.40;99.90
17170;DHT22;8700;48.222;16.342;2023-04-07T17:24:19;10.40;99.90
17170;DHT22;8700;48.222;16.342;2023-04-07T17:27:43;10.30;99.90
17170;DHT22;8700;48.222;16.342;2023-04-07T17:31:06;10.30;99.90
17170;DHT22;8700;48.222;16.342;2023-04-07T17:34:29;10.20;99.90
17170;DHT22;8700;48.222;16.342;2023-04-07T17:37:52;10.20;99.90
17170;DHT22;8700;48.222;16.342;2023-04-07T17:41:15;10.10;99.90
17170;DHT22;8700;48.222;16.342;2023-04-07T17:44:37;10.00;99.90
17170;DHT22;8700;48.222;16.342;2023-04-07T17:47:58;10.10;99.90
17170;DHT22;8700;48.222;16.342;2023-04-07T17:51:23;10.10;99.90
17170;DHT22;8700;48.222;16.342;2023-04-07T17:54:44;10.20;99.90
17170;DHT22;8700;48.222;16.342;2023-04-07T17:58:06;10.30;99.90
17170;DHT22;8700;48.222;16.342;2023-04-07T18:01:27;10.30;99.90
17170;DHT22;8700;48.222;16.342;2023-04-07T18:04:49;10.20;99.90
17170;DHT22;8700;48.222;16.342;2023-04-07T18:08:11;10.30;99.90
17170;DHT22;8700;48.222;16.342;2023-04-07T18:11:33;10.20;99.90
17170;DHT22;8700;48.222;16.342;2023-04-07T18:14:54;10.20;99.90
17170;DHT22;8700;48.222;16.342;2023-04-07T18:18:16;10.20;99.90
17170;DHT22;8700;48.222;16.342;2023-04-07T18:21:38;10.20;99.90
17170;DHT22;8700;48.222;16.342;2023-04-07T18:25:01;10.20;99.90
17170;DHT22;8700;48.222;16.342;2023-04-07T18:28:22;10.10;99.90
17170;DHT22;8700;48.222;16.342;2023-04-07T18:31:43;10.10;99.90
17170;DHT22;8700;48.222;16.342;2023-04-07T18:35:06;10.10;99.90
17170;DHT22;8700;48.222;16.342;2023-04-07T18:38:27;10.30;99.90
17170;DHT22;8700;48.222;16.342;2023-04-07T18:41:51;10.30;99.90
17170;DHT22;8700;48.222;16.342;2023-04-07T18:45:12;10.30;99.90
17170;DHT22;8700;48.222;16.342;2023-04-07T18:48:35;10.30;99.90
17170;DHT22;8700;48.222;16.342;2023-04-07T18:51:56;10.30;99.90
17170;DHT22;8700;48.222;16.342;2023-04-07T18:55:18;10.30;99.90
17170;DHT22;8700;48.222;16.342;2023-04-07T18:58:41;10.30;99.90
17170;DHT22;8700;48.222;16.342;2023-04-07T19:02:04;10.30;99.90
17170;DHT22;8700;48.222;16.342;2023-04-07T19:05:26;10.30;99.90
17170;DHT22;8700;48.222;16.342;2023-04-07T19:08:47;10.20;99.90
17170;DHT22;8700;48.222;16.342;2023-04-07T19:12:10;10.20;99.90
17170;DHT22;8700;48.222;16.342;2023-04-07T19:15:33;10.10;99.90
17170;DHT22;8700;48.222;16.342;2023-04-07T19:18:57;10.00;99.90
17170;DHT22;8700;48.222;16.342;2023-04-07T19:22:18;10.00;99.90
17170;DHT22;8700;48.222;16.342;2023-04-07T19:25:40;9.90;99.90
17170;DHT22;8700;48.222;16.342;2023-04-07T19:29:01;10.00;99.90
17170;DHT22;8700;48.222;16.342;2023-04-07T19:32:24;9.90;99.90
17170;DHT22;8700;48.222;16.342;2023-04-07T19:35:46;9.90;99.90
17170;DHT22;8700;48.222;16.342;2023-04-07T19:39:07;9.80;99.90
17170;DHT22;8700;48.222;16.342;2023-04-07T19:42:28;9.70;99.90
17170;DHT22;8700;48.222;16.342;2023-04-07T19:45:49;9.80;99.90
17170;DHT22;8700;48.222;16.342;2023-04-07T19:49:12;9.90;99.90
17170;DHT22;8700;48.222;16.342;2023-04-07T19:52:33;10.00;99.90
17170;DHT22;8700;48.222;16.342;2023-04-07T19:55:54;10.00;99.90
17170;DHT22;8700;48.222;16.342;2023-04-07T19:59:16;10.00;99.90
17170;DHT22;8700;48.222;16.342;2023-04-07T20:02:37;10.00;99.90
17170;DHT22;8700;48.222;16.342;2023-04-07T20:06:00;10.00;99.90
17170;DHT22;8700;48.222;16.342;2023-04-07T20:09:21;10.00;99.90
17170;DHT22;8700;48.222;16.342;2023-04-07T20:12:45;10.00;99.90
17170;DHT22;8700;48.222;16.342;2023-04-07T20:16:06;10.00;99.90
17170;DHT22;8700;48.222;16.342;2023-04-07T20:19:28;10.00;99.90
17170;DHT22;8700;48.222;16.342;2023-04-07T20:22:51;10.00;99.90
17170;DHT22;8700;48.222;16.342;2023-04-07T20:26:12;10.00;99.90
17170;DHT22;8700;48.222;16.342;2023-04-07T20:29:33;9.80;99.90
17170;DHT22;8700;48.222;16.342;2023-04-07T20:32:55;9.80;99.90
17170;DHT22;8700;48.222;16.342;2023-04-07T20:36:16;9.80;99.90
17170;DHT22;8700;48.222;16.342;2023-04-07T20:39:39;9.70;99.90
17170;DHT22;8700;48.222;16.342;2023-04-07T20:43:00;9.70;99.90
17170;DHT22;8700;48.222;16.342;2023-04-07T20:46:25;9.70;99.90
17170;DHT22;8700;48.222;16.342;2023-04-07T20:49:49;9.70;99.90
17170;DHT22;8700;48.222;16.342;2023-04-07T20:53:11;9.70;99.90
17170;DHT22;8700;48.222;16.342;2023-04-07T20:56:34;9.70;99.90
17170;DHT22;8700;48.222;16.342;2023-04-07T20:59:56;9.80;99.90
17170;DHT22;8700;48.222;16.342;2023-04-07T21:03:17;9.70;99.90
17170;DHT22;8700;48.222;16.342;2023-04-07T21:06:39;9.60;99.90
17170;DHT22;8700;48.222;16.342;2023-04-07T21:10:01;9.60;99.90
17170;DHT22;8700;48.222;16.342;2023-04-07T21:13:23;9.70;99.90
17170;DHT22;8700;48.222;16.342;2023-04-07T21:16:46;9.80;99.90
17170;DHT22;8700;48.222;16.342;2023-04-07T21:20:08;9.90;99.90
17170;DHT22;8700;48.222;16.342;2023-04-07T21:23:29;9.90;99.90
17170;DHT22;8700;48.222;16.342;2023-04-07T21:26:52;9.90;99.90
17170;DHT22;8700;48.222;16.342;2023-04-07T21:30:15;9.80;99.90